createdAt,value
2023-04-14T00:02:21.328Z,47
2023-04-14T00:04:52.447Z,47
2023-04-14T00:07:24.290Z,48
2023-04-14T00:09:56.188Z,48
2023-04-14T00:12:26.498Z,47
2023-04-14T00:14:57.244Z,48
2023-04-14T00:17:27.741Z,48
2023-04-14T00:19:58.381Z,48
2023-04-14T00:22:33.012Z,47
2023-04-14T00:25:03.727Z,48
2023-04-14T00:27:34.636Z,48
2023-04-14T00:30:08.104Z,48
2023-04-14T00:32:42.209Z,49
2023-04-14T00:35:17.778Z,49
2023-04-14T00:37:48.709Z,49
2023-04-14T00:40:19.729Z,50
2023-04-14T00:42:50.102Z,49
2023-04-14T00:45:20.858Z,49
2023-04-14T00:47:51.517Z,49
2023-04-14T00:50:22.646Z,49
2023-04-14T00:52:57.942Z,50
2023-04-14T00:55:28.676Z,50
2023-04-14T00:58:00.807Z,50
2023-04-14T01:00:32.967Z,50
2023-04-14T01:03:04.064Z,50
2023-04-14T01:05:35.293Z,49
2023-04-14T01:08:07.163Z,49
2023-04-14T01:10:38.366Z,49
2023-04-14T01:13:09.449Z,49
2023-04-14T01:15:40.770Z,49
2023-04-14T01:18:14.758Z,49
2023-04-14T01:20:45.887Z,49
2023-04-14T01:23:18.012Z,49
2023-04-14T01:25:50.771Z,49
2023-04-14T01:28:22.150Z,49
2023-04-14T01:30:53.780Z,49
2023-04-14T01:33:24.633Z,49
2023-04-14T01:35:56.201Z,49
2023-04-14T01:38:27.569Z,49
2023-04-14T01:41:01.309Z,49
2023-04-14T01:43:32.305Z,50
2023-04-14T01:46:03.357Z,49
2023-04-14T01:48:34.259Z,50
2023-04-14T01:51:05.415Z,50
2023-04-14T01:53:36.016Z,50
2023-04-14T01:56:08.567Z,50
2023-04-14T01:58:40.262Z,50
2023-04-14T02:01:12.236Z,51
2023-04-14T02:03:43.235Z,51
2023-04-14T02:06:13.942Z,50
2023-04-14T02:08:44.845Z,50
2023-04-14T02:11:15.741Z,50
2023-04-14T02:13:47.123Z,50
2023-04-14T02:16:17.906Z,51
2023-04-14T02:18:48.750Z,50
2023-04-14T02:21:19.414Z,51
2023-04-14T02:23:53.610Z,51
2023-04-14T02:26:24.825Z,51
2023-04-14T02:28:55.615Z,51
2023-04-14T02:31:30.793Z,51
2023-04-14T02:34:02.309Z,51
2023-04-14T02:36:33.324Z,51
2023-04-14T02:39:04.372Z,51
2023-04-14T02:41:35.107Z,51
2023-04-14T02:44:06.174Z,51
2023-04-14T02:46:37.495Z,52
2023-04-14T02:49:08.540Z,51
2023-04-14T02:51:39.548Z,52
2023-04-14T02:54:11.840Z,51
2023-04-14T02:56:42.491Z,51
2023-04-14T02:59:13.394Z,51
2023-04-14T03:01:44.482Z,51
2023-04-14T03:04:14.995Z,51
2023-04-14T03:06:45.822Z,51
2023-04-14T03:09:16.952Z,51
2023-04-14T03:11:49.186Z,51
2023-04-14T03:14:20.993Z,51
2023-04-14T03:16:53.570Z,51
2023-04-14T03:19:22.994Z,51
2023-04-14T03:21:55.015Z,50
2023-04-14T03:24:26.043Z,50
2023-04-14T03:26:56.889Z,50
2023-04-14T03:29:27.664Z,50
2023-04-14T03:31:58.443Z,50
2023-04-14T03:34:29.488Z,49
2023-04-14T03:37:00.523Z,49
2023-04-14T03:39:31.699Z,49
2023-04-14T03:42:02.886Z,49
2023-04-14T03:44:33.971Z,49
2023-04-14T03:47:04.926Z,49
2023-04-14T03:49:35.661Z,48
2023-04-14T03:52:07.086Z,49
2023-04-14T03:54:38.562Z,49
2023-04-14T03:57:09.549Z,48
2023-04-14T03:59:44.458Z,48
2023-04-14T04:02:16.761Z,49
2023-04-14T04:04:47.477Z,49
2023-04-14T04:07:19.903Z,48
2023-04-14T04:09:50.742Z,48
2023-04-14T04:12:21.773Z,48
2023-04-14T04:14:52.315Z,48
2023-04-14T04:17:22.807Z,48
2023-04-14T04:19:54.054Z,48
2023-04-14T04:22:24.947Z,48
2023-04-14T04:24:59.952Z,48
2023-04-14T04:27:31.104Z,48
2023-04-14T04:30:02.022Z,48
2023-04-14T04:32:35.708Z,48
2023-04-14T04:35:07.360Z,48
2023-04-14T04:37:38.129Z,48
2023-04-14T04:40:09.835Z,49
2023-04-14T04:42:41.212Z,48
2023-04-14T04:45:13.293Z,49
2023-04-14T04:47:44.170Z,48
2023-04-14T04:50:17.927Z,48
2023-04-14T04:52:47.136Z,48
2023-04-14T04:55:18.348Z,48
2023-04-14T04:57:49.543Z,48
2023-04-14T05:00:19.971Z,48
2023-04-14T05:02:52.386Z,48
2023-04-14T05:05:22.783Z,48
2023-04-14T05:07:59.774Z,48
2023-04-14T05:10:30.608Z,48
2023-04-14T05:13:01.217Z,48
2023-04-14T05:15:34.844Z,47
2023-04-14T05:18:06.681Z,47
2023-04-14T05:20:38.229Z,47
2023-04-14T05:23:09.835Z,47
2023-04-14T05:25:40.845Z,47
2023-04-14T05:28:11.545Z,47
2023-04-14T05:30:44.715Z,47
2023-04-14T05:33:16.101Z,46
2023-04-14T05:35:46.652Z,46
2023-04-14T05:38:18.019Z,46
2023-04-14T05:40:51.915Z,46
2023-04-14T05:43:22.532Z,47
2023-04-14T05:45:53.314Z,48
2023-04-14T05:48:24.895Z,47
2023-04-14T05:50:55.030Z,49
2023-04-14T05:53:25.705Z,49
2023-04-14T05:55:56.118Z,50
2023-04-14T05:58:27.051Z,50
2023-04-14T06:00:58.020Z,55
2023-04-14T06:03:29.044Z,60
2023-04-14T06:06:00.500Z,62
2023-04-14T06:08:30.972Z,65
2023-04-14T06:11:02.468Z,67
2023-04-14T06:13:40.186Z,68
2023-04-14T06:16:15.016Z,69
2023-04-14T06:18:48.348Z,68
2023-04-14T06:21:18.942Z,68
2023-04-14T06:23:49.429Z,69
2023-04-14T06:26:19.976Z,69
2023-04-14T06:28:51.053Z,70
2023-04-14T06:31:25.882Z,70
2023-04-14T06:33:56.702Z,70
2023-04-14T06:36:27.298Z,70
2023-04-14T06:38:57.875Z,71
2023-04-14T06:41:28.776Z,70
2023-04-14T06:43:59.440Z,71
2023-04-14T06:46:30.355Z,72
2023-04-14T06:49:01.031Z,72
2023-04-14T06:51:31.632Z,72
2023-04-14T06:54:02.416Z,72
2023-04-14T06:56:33.007Z,72
2023-04-14T06:59:03.339Z,71
2023-04-14T07:01:33.964Z,72
2023-04-14T07:04:08.682Z,71
2023-04-14T07:06:39.357Z,70
2023-04-14T07:09:10.104Z,70
2023-04-14T07:11:41.267Z,71
2023-04-14T07:14:18.810Z,71
2023-04-14T07:16:49.479Z,71
2023-04-14T07:19:23.653Z,72
2023-04-14T07:21:55.337Z,72
2023-04-14T07:24:26.408Z,71
2023-04-14T07:26:57.158Z,72
2023-04-14T07:29:28.806Z,72
2023-04-14T07:32:04.914Z,71
2023-04-14T07:34:36.522Z,72
2023-04-14T07:37:06.841Z,71
2023-04-14T07:39:38.778Z,72
2023-04-14T07:42:11.242Z,71
2023-04-14T07:44:40.828Z,72
2023-04-14T07:47:17.140Z,73
2023-04-14T07:49:50.688Z,72
2023-04-14T07:52:20.217Z,72
2023-04-14T07:54:50.627Z,72
2023-04-14T07:57:21.357Z,72
2023-04-14T07:59:53.999Z,72
2023-04-14T08:02:24.818Z,72
2023-04-14T08:04:56.933Z,72
2023-04-14T08:07:27.686Z,72
2023-04-14T08:09:58.481Z,72
2023-04-14T08:12:29.244Z,73
2023-04-14T08:14:59.854Z,73
2023-04-14T08:17:30.481Z,74
2023-04-14T08:20:00.900Z,73
2023-04-14T08:22:32.010Z,72
2023-04-14T08:25:02.123Z,73
2023-04-14T08:27:36.574Z,72
2023-04-14T08:30:08.373Z,73
2023-04-14T08:32:39.513Z,72
2023-04-14T08:35:36.817Z,73
2023-04-14T08:37:41.325Z,72
2023-04-14T08:40:12.146Z,71
2023-04-14T08:42:42.938Z,71
2023-04-14T08:45:13.179Z,71
2023-04-14T08:47:44.043Z,70
2023-04-14T08:50:19.578Z,71
2023-04-14T08:52:50.421Z,71
2023-04-14T08:55:20.365Z,71
2023-04-14T08:57:53.453Z,71
2023-04-14T09:00:24.795Z,71
2023-04-14T09:02:56.490Z,71
2023-04-14T09:05:27.084Z,71
2023-04-14T09:07:57.817Z,71
2023-04-14T09:10:29.807Z,71
2023-04-14T09:13:00.462Z,71
2023-04-14T09:15:32.927Z,71
2023-04-14T09:18:04.673Z,71
2023-04-14T09:20:40.640Z,71
2023-04-14T09:23:05.932Z,71
2023-04-14T09:25:39.093Z,70
2023-04-14T09:28:11.025Z,70
2023-04-14T09:30:41.220Z,70
2023-04-14T09:33:14.016Z,71
2023-04-14T09:35:50.587Z,71
2023-04-14T09:38:21.147Z,70
2023-04-14T09:40:54.280Z,70
2023-04-14T09:43:24.353Z,70
2023-04-14T09:45:55.928Z,71
2023-04-14T09:48:27.296Z,70
2023-04-14T09:50:59.173Z,72
2023-04-14T09:53:29.564Z,71
2023-04-14T09:56:03.203Z,70
2023-04-14T09:58:45.860Z,70
2023-04-14T10:01:16.155Z,71
2023-04-14T10:03:46.367Z,71
2023-04-14T10:06:16.412Z,70
2023-04-14T10:08:48.897Z,70
2023-04-14T10:11:20.883Z,70
2023-04-14T10:13:52.143Z,71
2023-04-14T10:16:22.713Z,71
2023-04-14T10:18:56.461Z,70
2023-04-14T10:21:26.952Z,70
2023-04-14T10:23:57.012Z,70
2023-04-14T10:26:29.302Z,70
2023-04-14T10:28:59.763Z,69
2023-04-14T10:31:30.157Z,68
2023-04-14T10:34:00.362Z,69
2023-04-14T10:36:30.756Z,70
2023-04-14T10:39:01.482Z,69
2023-04-14T10:41:32.484Z,69
2023-04-14T10:44:02.800Z,71
2023-04-14T10:46:32.870Z,71
2023-04-14T10:49:03.569Z,70
2023-04-14T10:51:34.239Z,68
2023-04-14T10:54:09.204Z,67
2023-04-14T10:56:40.750Z,68
2023-04-14T10:59:14.488Z,67
2023-04-14T11:01:48.333Z,67
2023-04-14T11:04:19.412Z,64
2023-04-14T11:06:52.589Z,63
2023-04-14T11:09:22.434Z,62
2023-04-14T11:11:57.688Z,63
2023-04-14T11:17:03.599Z,61
2023-04-14T11:19:28.966Z,62
2023-04-14T11:21:59.802Z,63
2023-04-14T11:24:29.814Z,63
2023-04-14T11:27:03.928Z,63
2023-04-14T11:29:34.340Z,63
2023-04-14T11:32:04.556Z,63
2023-04-14T11:34:40.151Z,61
2023-04-14T11:37:15.445Z,62
2023-04-14T11:39:51.461Z,61
2023-04-14T11:42:22.141Z,61
2023-04-14T11:44:53.389Z,60
2023-04-14T11:47:24.556Z,61
2023-04-14T11:49:55.434Z,60
2023-04-14T11:52:25.980Z,58
2023-04-14T11:54:56.107Z,58
2023-04-14T11:57:28.658Z,57
2023-04-14T12:00:01.012Z,58
2023-04-14T12:02:31.540Z,57
2023-04-14T12:05:02.486Z,57
2023-04-14T12:07:34.969Z,55
2023-04-14T12:10:07.486Z,56
2023-04-14T12:12:37.857Z,57
2023-04-14T12:15:08.821Z,58
2023-04-14T12:17:42.651Z,58
2023-04-14T12:20:14.050Z,57
2023-04-14T12:22:45.132Z,57
2023-04-14T12:25:18.692Z,55
2023-04-14T12:27:49.057Z,56
2023-04-14T12:30:19.284Z,57
2023-04-14T12:32:49.958Z,55
2023-04-14T12:35:23.340Z,56
2023-04-14T12:37:57.116Z,55
2023-04-14T12:40:27.561Z,54
2023-04-14T12:42:58.149Z,53
2023-04-14T12:45:31.448Z,52
2023-04-14T12:48:04.637Z,53
2023-04-14T12:50:35.486Z,52
2023-04-14T12:53:05.934Z,50
2023-04-14T12:55:35.688Z,50
2023-04-14T12:58:06.640Z,50
2023-04-14T13:00:37.972Z,50
2023-04-14T13:03:08.560Z,50
2023-04-14T13:05:39.036Z,50
2023-04-14T13:08:09.753Z,49
2023-04-14T13:10:40.402Z,48
2023-04-14T13:13:14.034Z,49
2023-04-14T13:16:14.294Z,49
2023-04-14T13:18:15.718Z,49
2023-04-14T13:20:45.920Z,49
2023-04-14T13:23:16.187Z,48
2023-04-14T13:25:47.958Z,47
2023-04-14T13:28:19.309Z,47
2023-04-14T13:30:51.020Z,47
2023-04-14T13:33:21.470Z,47
2023-04-14T13:35:55.011Z,46
2023-04-14T13:38:28.025Z,46
2023-04-14T13:40:59.346Z,46
2023-04-14T13:43:29.518Z,46
2023-04-14T13:45:59.804Z,45
2023-04-14T13:48:30.314Z,46
2023-04-14T13:51:01.157Z,46
2023-04-14T13:53:31.352Z,44
2023-04-14T13:56:06.874Z,45
2023-04-14T13:58:36.785Z,45
2023-04-14T14:01:14.107Z,45
2023-04-14T14:03:44.566Z,44
2023-04-14T14:06:16.480Z,42
2023-04-14T14:08:46.828Z,42
2023-04-14T14:11:22.322Z,44
2023-04-14T14:13:53.186Z,42
2023-04-14T14:18:53.499Z,43
2023-04-14T14:21:23.684Z,42
2023-04-14T14:23:54.977Z,42
2023-04-14T14:26:27.180Z,41
2023-04-14T14:28:58.890Z,42
2023-04-14T14:31:29.397Z,41
2023-04-14T14:34:04.043Z,40
2023-04-14T14:36:39.455Z,41
2023-04-14T14:39:12.909Z,40
2023-04-14T14:41:47.037Z,40
2023-04-14T14:44:17.226Z,40
2023-04-14T14:46:47.649Z,40
2023-04-14T14:49:18.100Z,39
2023-04-14T14:51:48.649Z,40
2023-04-14T14:54:21.846Z,40
2023-04-14T14:56:52.452Z,40
2023-04-14T14:59:21.066Z,39
2023-04-14T15:01:53.071Z,40
2023-04-14T15:04:24.738Z,39
2023-04-14T15:06:57.872Z,40
2023-04-14T15:09:28.355Z,40
2023-04-14T15:11:58.542Z,40
2023-04-14T15:14:29.804Z,40
2023-04-14T15:17:01.129Z,42
2023-04-14T15:19:31.608Z,41
2023-04-14T15:22:02.010Z,42
2023-04-14T15:24:31.661Z,41
2023-04-14T15:27:02.543Z,41
2023-04-14T15:29:34.113Z,41
2023-04-14T15:32:04.897Z,41
2023-04-14T15:34:35.776Z,41
2023-04-14T15:37:05.965Z,42
2023-04-14T15:39:36.264Z,42
2023-04-14T15:42:07.088Z,42
2023-04-14T15:44:37.273Z,42
2023-04-14T15:47:10.459Z,42
2023-04-14T15:49:41.082Z,43
2023-04-14T15:52:11.408Z,43
2023-04-14T15:54:41.959Z,43
2023-04-14T15:57:12.080Z,43
2023-04-14T15:59:46.374Z,42
2023-04-14T16:02:17.241Z,42
2023-04-14T16:04:48.105Z,41
2023-04-14T16:07:20.535Z,41
2023-04-14T16:09:50.775Z,40
2023-04-14T16:12:21.408Z,41
2023-04-14T16:14:51.677Z,41
2023-04-14T16:17:27.743Z,40
2023-04-14T16:19:58.216Z,41
2023-04-14T16:22:28.781Z,41
2023-04-14T16:24:59.099Z,41
2023-04-14T16:27:29.436Z,41
2023-04-14T16:29:59.827Z,41
2023-04-14T16:32:30.222Z,42
2023-04-14T16:35:00.263Z,42
2023-04-14T16:37:30.311Z,42
2023-04-14T16:40:04.680Z,42
2023-04-14T16:42:34.894Z,42
2023-04-14T16:45:15.092Z,43
2023-04-14T16:47:46.264Z,43
2023-04-14T16:50:20.099Z,46
2023-04-14T16:52:54.017Z,48
2023-04-14T16:55:24.379Z,49
2023-04-14T16:57:54.977Z,50
2023-04-14T17:00:27.526Z,51
2023-04-14T17:02:57.900Z,52
2023-04-14T17:05:28.088Z,53
2023-04-14T17:07:58.397Z,53
2023-04-14T17:10:30.815Z,53
2023-04-14T17:13:02.208Z,54
2023-04-14T17:15:33.114Z,55
2023-04-14T17:18:04.306Z,56
2023-04-14T17:20:39.931Z,55
2023-04-14T17:23:10.204Z,56
2023-04-14T17:25:40.373Z,57
2023-04-14T17:28:11.228Z,57
2023-04-14T17:30:42.331Z,57
2023-04-14T17:33:13.155Z,57
2023-04-14T17:35:43.533Z,57
2023-04-14T17:38:18.762Z,57
2023-04-14T17:40:48.677Z,57
2023-04-14T17:43:18.988Z,57
2023-04-14T17:45:49.080Z,58
2023-04-14T17:48:19.523Z,58
2023-04-14T17:50:53.797Z,58
2023-04-14T17:53:23.969Z,59
2023-04-14T17:55:57.736Z,59
2023-04-14T17:58:28.682Z,60
2023-04-14T18:00:57.245Z,60
2023-04-14T18:03:28.666Z,60
2023-04-14T18:05:58.937Z,59
2023-04-14T18:08:29.255Z,60
2023-04-14T18:11:00.456Z,60
2023-04-14T18:13:33.168Z,60
2023-04-14T18:16:04.161Z,60
2023-04-14T18:18:42.423Z,60
2023-04-14T18:21:13.389Z,60
2023-04-14T18:23:43.640Z,61
2023-04-14T18:28:45.057Z,60
2023-04-14T18:31:17.538Z,60
2023-04-14T18:33:47.843Z,61
2023-04-14T18:36:17.976Z,61
2023-04-14T18:38:49.627Z,61
2023-04-14T18:41:22.536Z,60
2023-04-14T18:43:53.345Z,60
2023-04-14T18:46:23.648Z,60
2023-04-14T18:48:53.571Z,61
2023-04-14T18:51:24.218Z,62
2023-04-14T18:53:54.811Z,62
2023-04-14T18:56:25.128Z,62
2023-04-14T18:58:55.312Z,63
2023-04-14T19:01:25.484Z,63
2023-04-14T19:03:56.762Z,63
2023-04-14T19:06:26.728Z,63
2023-04-14T19:08:57.309Z,64
2023-04-14T19:11:29.012Z,64
2023-04-14T19:13:59.000Z,64
2023-04-14T19:16:29.482Z,64
2023-04-14T19:19:00.271Z,64
2023-04-14T19:21:30.105Z,64
2023-04-14T19:24:01.831Z,66
2023-04-14T19:26:33.408Z,65
2023-04-14T19:29:04.763Z,65
2023-04-14T19:31:34.817Z,65
2023-04-14T19:34:05.597Z,64
2023-04-14T19:36:36.270Z,64
2023-04-14T19:39:06.315Z,64
2023-04-14T19:41:36.500Z,63
2023-04-14T19:44:09.071Z,63
2023-04-14T19:46:39.314Z,64
2023-04-14T19:49:10.778Z,64
2023-04-14T19:51:41.397Z,64
2023-04-14T19:54:11.836Z,65
2023-04-14T19:56:42.012Z,65
2023-04-14T19:59:12.405Z,65
2023-04-14T20:01:42.895Z,64
2023-04-14T20:04:13.441Z,65
2023-04-14T20:06:43.719Z,65
2023-04-14T20:09:14.362Z,65
2023-04-14T20:11:44.471Z,66
2023-04-14T20:14:14.723Z,65
2023-04-14T20:16:45.282Z,65
2023-04-14T20:19:15.898Z,65
2023-04-14T20:21:46.620Z,65
2023-04-14T20:24:17.252Z,65
2023-04-14T20:26:48.652Z,65
2023-04-14T20:29:18.750Z,64
2023-04-14T20:31:49.287Z,65
2023-04-14T20:34:19.841Z,65
2023-04-14T20:36:49.888Z,65
2023-04-14T20:39:18.997Z,65
2023-04-14T20:41:51.724Z,65
2023-04-14T20:44:22.454Z,66
2023-04-14T20:46:53.216Z,67
2023-04-14T20:49:23.558Z,67
2023-04-14T20:51:54.247Z,66
2023-04-14T20:54:24.665Z,66
2023-04-14T20:56:55.025Z,67
2023-04-14T20:59:25.391Z,67
2023-04-14T21:01:55.912Z,67
2023-04-14T21:04:26.230Z,67
2023-04-14T21:06:56.437Z,68
2023-04-14T21:09:25.134Z,67
2023-04-14T21:12:14.157Z,67
2023-04-14T21:15:24.789Z,67
2023-04-14T21:16:59.380Z,68
2023-04-14T21:19:29.080Z,68
2023-04-14T21:21:59.712Z,68
2023-04-14T21:24:29.920Z,68
2023-04-14T21:27:00.022Z,68
2023-04-14T21:29:30.094Z,67
2023-04-14T21:32:00.681Z,68
2023-04-14T21:34:31.089Z,67
2023-04-14T21:37:01.799Z,67
2023-04-14T21:39:31.762Z,67
2023-04-14T21:42:02.101Z,67
2023-04-14T21:44:32.840Z,67
2023-04-14T21:47:03.262Z,66
2023-04-14T21:49:33.560Z,67
2023-04-14T21:52:04.213Z,67
2023-04-14T21:54:34.507Z,66
2023-04-14T21:57:05.139Z,67
2023-04-14T21:59:35.527Z,66
2023-04-14T22:02:05.944Z,67
2023-04-14T22:04:37.130Z,66
2023-04-14T22:07:09.764Z,66
2023-04-14T22:09:40.557Z,66
2023-04-14T22:12:10.430Z,66
2023-04-14T22:14:40.914Z,66
2023-04-14T22:17:11.378Z,66
2023-04-14T22:19:41.891Z,67
2023-04-14T22:22:12.948Z,66
2023-04-14T22:24:43.377Z,66
2023-04-14T22:27:14.152Z,67
2023-04-14T22:29:47.925Z,66
2023-04-14T22:32:20.067Z,66
2023-04-14T22:34:51.000Z,66
2023-04-14T22:37:21.476Z,66
2023-04-14T22:39:52.220Z,67
2023-04-14T22:42:23.157Z,67
2023-04-14T22:44:53.748Z,67
2023-04-14T22:47:24.143Z,67
2023-04-14T22:49:54.788Z,67
2023-04-14T22:52:25.360Z,67
2023-04-14T22:54:55.908Z,67
2023-04-14T22:57:26.490Z,67
2023-04-14T22:59:56.855Z,67
2023-04-14T23:02:27.277Z,67
2023-04-14T23:04:57.666Z,67
2023-04-14T23:07:28.420Z,67
2023-04-14T23:09:59.251Z,67
2023-04-14T23:12:29.766Z,68
2023-04-14T23:15:00.289Z,67
2023-04-14T23:17:31.061Z,67
2023-04-14T23:20:01.599Z,67
2023-04-14T23:22:32.661Z,67
2023-04-14T23:25:03.527Z,67
2023-04-14T23:27:33.838Z,66
2023-04-14T23:30:04.595Z,67
2023-04-14T23:32:35.657Z,67
2023-04-14T23:35:05.776Z,67
2023-04-14T23:37:36.509Z,68
2023-04-14T23:40:07.341Z,67
2023-04-14T23:42:37.586Z,68
2023-04-14T23:45:08.221Z,69
2023-04-14T23:47:39.074Z,69
2023-04-14T23:50:09.653Z,69
2023-04-14T23:52:40.857Z,69
2023-04-14T23:55:11.532Z,68
2023-04-14T23:57:42.420Z,68
